sensor_id;sensor_type;location;lat;lon;timestamp;P1;durP1;ratioP1;P2;durP2;ratioP2
38529;SDS011;24301;54.332;48.386;2023-04-26T00:01:16;15.70;;;9.93;;
38529;SDS011;24301;54.332;48.386;2023-04-26T00:03:41;15.47;;;10.57;;
38529;SDS011;24301;54.332;48.386;2023-04-26T00:06:07;14.70;;;10.20;;
38529;SDS011;24301;54.332;48.386;2023-04-26T00:08:34;14.87;;;9.57;;
38529;SDS011;24301;54.332;48.386;2023-04-26T00:11:00;13.07;;;10.83;;
38529;SDS011;24301;54.332;48.386;2023-04-26T00:13:26;17.40;;;11.27;;
38529;SDS011;24301;54.332;48.386;2023-04-26T00:15:52;16.90;;;10.87;;
38529;SDS011;24301;54.332;48.386;2023-04-26T00:18:18;19.43;;;11.47;;
38529;SDS011;24301;54.332;48.386;2023-04-26T00:20:44;19.43;;;10.70;;
38529;SDS011;24301;54.332;48.386;2023-04-26T00:23:10;18.42;;;12.35;;
38529;SDS011;24301;54.332;48.386;2023-04-26T00:25:36;17.27;;;11.33;;
38529;SDS011;24301;54.332;48.386;2023-04-26T00:28:02;15.90;;;11.07;;
38529;SDS011;24301;54.332;48.386;2023-04-26T00:30:29;15.23;;;10.27;;
38529;SDS011;24301;54.332;48.386;2023-04-26T00:32:55;19.43;;;10.97;;
38529;SDS011;24301;54.332;48.386;2023-04-26T00:35:20;19.80;;;11.00;;
38529;SDS011;24301;54.332;48.386;2023-04-26T00:37:46;26.17;;;12.33;;
38529;SDS011;24301;54.332;48.386;2023-04-26T00:40:12;18.73;;;12.00;;
38529;SDS011;24301;54.332;48.386;2023-04-26T00:42:40;22.27;;;11.73;;
38529;SDS011;24301;54.332;48.386;2023-04-26T00:45:06;15.80;;;11.23;;
38529;SDS011;24301;54.332;48.386;2023-04-26T00:47:33;20.73;;;11.37;;
38529;SDS011;24301;54.332;48.386;2023-04-26T00:50:00;21.60;;;13.17;;
38529;SDS011;24301;54.332;48.386;2023-04-26T00:52:29;20.57;;;12.53;;
38529;SDS011;24301;54.332;48.386;2023-04-26T00:54:56;16.73;;;11.03;;
38529;SDS011;24301;54.332;48.386;2023-04-26T00:57:22;26.43;;;13.67;;
38529;SDS011;24301;54.332;48.386;2023-04-26T00:59:48;20.07;;;12.50;;
38529;SDS011;24301;54.332;48.386;2023-04-26T01:02:15;25.03;;;12.23;;
38529;SDS011;24301;54.332;48.386;2023-04-26T01:04:41;21.07;;;13.13;;
38529;SDS011;24301;54.332;48.386;2023-04-26T01:07:09;22.37;;;13.50;;
38529;SDS011;24301;54.332;48.386;2023-04-26T01:09:36;22.93;;;13.13;;
38529;SDS011;24301;54.332;48.386;2023-04-26T01:12:02;19.00;;;12.87;;
38529;SDS011;24301;54.332;48.386;2023-04-26T01:14:29;20.40;;;13.13;;
38529;SDS011;24301;54.332;48.386;2023-04-26T01:16:58;18.03;;;11.20;;
38529;SDS011;24301;54.332;48.386;2023-04-26T01:27:09;23.98;;;13.32;;
38529;SDS011;24301;54.332;48.386;2023-04-26T01:29:36;26.97;;;14.63;;
38529;SDS011;24301;54.332;48.386;2023-04-26T01:32:15;18.70;;;13.07;;
38529;SDS011;24301;54.332;48.386;2023-04-26T01:37:58;21.37;;;13.23;;
38529;SDS011;24301;54.332;48.386;2023-04-26T01:40:37;22.50;;;13.07;;
38529;SDS011;24301;54.332;48.386;2023-04-26T01:43:31;21.23;;;12.47;;
38529;SDS011;24301;54.332;48.386;2023-04-26T01:45:57;17.27;;;13.93;;
38529;SDS011;24301;54.332;48.386;2023-04-26T01:48:30;19.40;;;13.80;;
38529;SDS011;24301;54.332;48.386;2023-04-26T01:51:00;26.23;;;13.33;;
38529;SDS011;24301;54.332;48.386;2023-04-26T01:53:26;24.37;;;13.57;;
38529;SDS011;24301;54.332;48.386;2023-04-26T01:55:52;27.77;;;13.30;;
38529;SDS011;24301;54.332;48.386;2023-04-26T01:58:19;26.10;;;13.87;;
38529;SDS011;24301;54.332;48.386;2023-04-26T02:00:47;23.90;;;14.47;;
38529;SDS011;24301;54.332;48.386;2023-04-26T02:03:13;26.00;;;14.63;;
38529;SDS011;24301;54.332;48.386;2023-04-26T02:05:39;25.83;;;15.00;;
38529;SDS011;24301;54.332;48.386;2023-04-26T02:08:05;30.80;;;15.47;;
38529;SDS011;24301;54.332;48.386;2023-04-26T02:10:37;25.67;;;15.67;;
38529;SDS011;24301;54.332;48.386;2023-04-26T02:13:15;30.47;;;14.83;;
38529;SDS011;24301;54.332;48.386;2023-04-26T02:15:44;26.43;;;14.77;;
38529;SDS011;24301;54.332;48.386;2023-04-26T02:18:12;349.63;;;34.17;;
38529;SDS011;24301;54.332;48.386;2023-04-26T02:20:41;49.40;;;16.17;;
38529;SDS011;24301;54.332;48.386;2023-04-26T02:23:08;97.77;;;20.27;;
38529;SDS011;24301;54.332;48.386;2023-04-26T02:25:35;340.00;;;32.93;;
38529;SDS011;24301;54.332;48.386;2023-04-26T02:28:02;422.03;;;38.23;;
38529;SDS011;24301;54.332;48.386;2023-04-26T02:30:28;528.73;;;54.90;;
38529;SDS011;24301;54.332;48.386;2023-04-26T02:32:54;295.77;;;30.27;;
38529;SDS011;24301;54.332;48.386;2023-04-26T02:35:22;416.93;;;40.53;;
38529;SDS011;24301;54.332;48.386;2023-04-26T02:37:48;290.53;;;34.00;;
38529;SDS011;24301;54.332;48.386;2023-04-26T02:40:18;113.27;;;21.73;;
38529;SDS011;24301;54.332;48.386;2023-04-26T02:47:14;32.17;;;18.27;;
38529;SDS011;24301;54.332;48.386;2023-04-26T02:50:51;40.00;;;19.30;;
38529;SDS011;24301;54.332;48.386;2023-04-26T02:53:17;39.00;;;19.27;;
38529;SDS011;24301;54.332;48.386;2023-04-26T02:55:43;24.77;;;17.07;;
38529;SDS011;24301;54.332;48.386;2023-04-26T02:58:09;29.43;;;19.57;;
38529;SDS011;24301;54.332;48.386;2023-04-26T03:00:35;27.03;;;17.73;;
38529;SDS011;24301;54.332;48.386;2023-04-26T03:03:01;34.77;;;18.33;;
38529;SDS011;24301;54.332;48.386;2023-04-26T03:05:27;31.37;;;17.40;;
38529;SDS011;24301;54.332;48.386;2023-04-26T03:07:53;32.20;;;17.40;;
38529;SDS011;24301;54.332;48.386;2023-04-26T03:10:19;32.23;;;17.10;;
38529;SDS011;24301;54.332;48.386;2023-04-26T03:12:46;26.20;;;16.53;;
38529;SDS011;24301;54.332;48.386;2023-04-26T03:15:14;25.00;;;15.63;;
38529;SDS011;24301;54.332;48.386;2023-04-26T03:17:41;25.43;;;15.00;;
38529;SDS011;24301;54.332;48.386;2023-04-26T03:20:08;26.60;;;15.67;;
38529;SDS011;24301;54.332;48.386;2023-04-26T03:22:35;24.27;;;14.47;;
38529;SDS011;24301;54.332;48.386;2023-04-26T03:25:01;32.20;;;15.33;;
38529;SDS011;24301;54.332;48.386;2023-04-26T03:27:31;25.93;;;15.80;;
38529;SDS011;24301;54.332;48.386;2023-04-26T03:29:59;25.17;;;14.23;;
38529;SDS011;24301;54.332;48.386;2023-04-26T03:32:25;23.47;;;13.93;;
38529;SDS011;24301;54.332;48.386;2023-04-26T03:34:51;24.20;;;15.90;;
38529;SDS011;24301;54.332;48.386;2023-04-26T03:37:17;20.57;;;14.10;;
38529;SDS011;24301;54.332;48.386;2023-04-26T03:39:47;21.07;;;14.80;;
38529;SDS011;24301;54.332;48.386;2023-04-26T03:42:15;25.63;;;15.43;;
38529;SDS011;24301;54.332;48.386;2023-04-26T03:44:41;26.30;;;14.23;;
38529;SDS011;24301;54.332;48.386;2023-04-26T03:47:06;19.37;;;14.20;;
38529;SDS011;24301;54.332;48.386;2023-04-26T03:49:32;22.60;;;14.40;;
38529;SDS011;24301;54.332;48.386;2023-04-26T03:51:58;24.13;;;13.77;;
38529;SDS011;24301;54.332;48.386;2023-04-26T03:54:24;25.93;;;13.73;;
38529;SDS011;24301;54.332;48.386;2023-04-26T03:56:50;27.90;;;15.10;;
38529;SDS011;24301;54.332;48.386;2023-04-26T03:59:17;28.40;;;15.13;;
38529;SDS011;24301;54.332;48.386;2023-04-26T04:01:43;30.07;;;15.37;;
38529;SDS011;24301;54.332;48.386;2023-04-26T04:04:09;26.37;;;13.73;;
38529;SDS011;24301;54.332;48.386;2023-04-26T04:06:35;24.63;;;14.17;;
38529;SDS011;24301;54.332;48.386;2023-04-26T04:09:01;31.93;;;13.70;;
38529;SDS011;24301;54.332;48.386;2023-04-26T04:11:27;27.37;;;14.10;;
38529;SDS011;24301;54.332;48.386;2023-04-26T04:13:53;22.73;;;14.00;;
38529;SDS011;24301;54.332;48.386;2023-04-26T04:16:19;25.90;;;13.63;;
38529;SDS011;24301;54.332;48.386;2023-04-26T04:18:44;24.17;;;13.00;;
38529;SDS011;24301;54.332;48.386;2023-04-26T04:21:10;27.17;;;13.17;;
38529;SDS011;24301;54.332;48.386;2023-04-26T04:23:37;24.27;;;12.40;;
38529;SDS011;24301;54.332;48.386;2023-04-26T04:26:07;30.03;;;13.60;;
38529;SDS011;24301;54.332;48.386;2023-04-26T04:28:33;21.97;;;11.47;;
38529;SDS011;24301;54.332;48.386;2023-04-26T04:30:59;23.50;;;11.27;;
38529;SDS011;24301;54.332;48.386;2023-04-26T04:33:26;30.27;;;13.27;;
38529;SDS011;24301;54.332;48.386;2023-04-26T04:35:54;30.70;;;12.87;;
38529;SDS011;24301;54.332;48.386;2023-04-26T04:38:20;26.17;;;11.40;;
38529;SDS011;24301;54.332;48.386;2023-04-26T04:40:49;21.17;;;10.87;;
38529;SDS011;24301;54.332;48.386;2023-04-26T04:43:16;31.07;;;12.37;;
38529;SDS011;24301;54.332;48.386;2023-04-26T04:45:42;22.03;;;11.23;;
38529;SDS011;24301;54.332;48.386;2023-04-26T04:48:09;23.53;;;10.97;;
38529;SDS011;24301;54.332;48.386;2023-04-26T04:50:39;31.43;;;11.33;;
38529;SDS011;24301;54.332;48.386;2023-04-26T04:53:07;29.70;;;12.33;;
38529;SDS011;24301;54.332;48.386;2023-04-26T04:55:37;33.63;;;11.30;;
38529;SDS011;24301;54.332;48.386;2023-04-26T04:58:03;33.75;;;11.98;;
38529;SDS011;24301;54.332;48.386;2023-04-26T05:00:30;31.87;;;12.37;;
38529;SDS011;24301;54.332;48.386;2023-04-26T05:03:16;32.03;;;11.47;;
38529;SDS011;24301;54.332;48.386;2023-04-26T05:05:43;26.83;;;11.98;;
38529;SDS011;24301;54.332;48.386;2023-04-26T05:08:09;33.37;;;10.60;;
38529;SDS011;24301;54.332;48.386;2023-04-26T05:10:36;34.43;;;10.93;;
38529;SDS011;24301;54.332;48.386;2023-04-26T05:13:02;25.38;;;9.30;;
38529;SDS011;24301;54.332;48.386;2023-04-26T05:15:28;26.33;;;11.10;;
38529;SDS011;24301;54.332;48.386;2023-04-26T05:17:54;23.57;;;10.33;;
38529;SDS011;24301;54.332;48.386;2023-04-26T05:20:22;24.13;;;10.63;;
38529;SDS011;24301;54.332;48.386;2023-04-26T05:22:48;34.77;;;11.53;;
38529;SDS011;24301;54.332;48.386;2023-04-26T05:25:14;26.50;;;10.57;;
38529;SDS011;24301;54.332;48.386;2023-04-26T05:27:42;21.70;;;11.93;;
38529;SDS011;24301;54.332;48.386;2023-04-26T05:30:18;27.90;;;10.40;;
38529;SDS011;24301;54.332;48.386;2023-04-26T05:33:03;22.93;;;9.20;;
38529;SDS011;24301;54.332;48.386;2023-04-26T05:35:40;21.93;;;9.60;;
38529;SDS011;24301;54.332;48.386;2023-04-26T05:38:06;30.03;;;10.70;;
38529;SDS011;24301;54.332;48.386;2023-04-26T05:40:31;26.52;;;10.43;;
38529;SDS011;24301;54.332;48.386;2023-04-26T05:42:58;25.13;;;9.40;;
38529;SDS011;24301;54.332;48.386;2023-04-26T05:45:25;25.23;;;8.27;;
38529;SDS011;24301;54.332;48.386;2023-04-26T05:47:51;22.85;;;8.60;;
38529;SDS011;24301;54.332;48.386;2023-04-26T05:50:17;25.58;;;8.80;;
38529;SDS011;24301;54.332;48.386;2023-04-26T05:52:43;21.00;;;8.82;;
38529;SDS011;24301;54.332;48.386;2023-04-26T05:55:09;24.38;;;9.20;;
38529;SDS011;24301;54.332;48.386;2023-04-26T05:57:35;21.77;;;8.10;;
38529;SDS011;24301;54.332;48.386;2023-04-26T06:00:02;20.80;;;8.77;;
38529;SDS011;24301;54.332;48.386;2023-04-26T06:02:39;26.95;;;9.48;;
38529;SDS011;24301;54.332;48.386;2023-04-26T06:05:10;15.73;;;7.50;;
38529;SDS011;24301;54.332;48.386;2023-04-26T06:07:36;21.27;;;8.02;;
38529;SDS011;24301;54.332;48.386;2023-04-26T06:10:04;16.80;;;7.57;;
38529;SDS011;24301;54.332;48.386;2023-04-26T06:12:31;20.60;;;8.68;;
38529;SDS011;24301;54.332;48.386;2023-04-26T06:14:58;21.83;;;8.07;;
38529;SDS011;24301;54.332;48.386;2023-04-26T06:17:26;21.35;;;8.15;;
38529;SDS011;24301;54.332;48.386;2023-04-26T06:19:52;19.35;;;8.10;;
38529;SDS011;24301;54.332;48.386;2023-04-26T06:22:18;14.57;;;7.15;;
38529;SDS011;24301;54.332;48.386;2023-04-26T06:24:43;20.33;;;7.32;;
38529;SDS011;24301;54.332;48.386;2023-04-26T06:27:09;16.25;;;7.93;;
38529;SDS011;24301;54.332;48.386;2023-04-26T06:29:37;22.58;;;7.03;;
38529;SDS011;24301;54.332;48.386;2023-04-26T06:32:02;13.77;;;6.40;;
38529;SDS011;24301;54.332;48.386;2023-04-26T06:34:29;18.40;;;5.80;;
38529;SDS011;24301;54.332;48.386;2023-04-26T06:36:55;19.63;;;6.90;;
38529;SDS011;24301;54.332;48.386;2023-04-26T06:39:23;19.17;;;6.03;;
38529;SDS011;24301;54.332;48.386;2023-04-26T06:41:50;19.27;;;6.78;;
38529;SDS011;24301;54.332;48.386;2023-04-26T06:44:24;26.60;;;8.38;;
38529;SDS011;24301;54.332;48.386;2023-04-26T06:46:53;17.92;;;5.70;;
38529;SDS011;24301;54.332;48.386;2023-04-26T06:49:19;19.70;;;6.50;;
38529;SDS011;24301;54.332;48.386;2023-04-26T06:51:45;18.08;;;6.55;;
38529;SDS011;24301;54.332;48.386;2023-04-26T06:54:11;22.50;;;7.00;;
38529;SDS011;24301;54.332;48.386;2023-04-26T06:56:37;24.75;;;8.80;;
38529;SDS011;24301;54.332;48.386;2023-04-26T06:59:04;17.75;;;6.13;;
38529;SDS011;24301;54.332;48.386;2023-04-26T07:01:31;15.18;;;6.80;;
38529;SDS011;24301;54.332;48.386;2023-04-26T07:03:59;22.48;;;6.72;;
38529;SDS011;24301;54.332;48.386;2023-04-26T07:06:29;17.42;;;5.85;;
38529;SDS011;24301;54.332;48.386;2023-04-26T07:08:58;16.48;;;5.70;;
38529;SDS011;24301;54.332;48.386;2023-04-26T07:11:25;20.20;;;7.03;;
38529;SDS011;24301;54.332;48.386;2023-04-26T07:13:51;18.38;;;6.18;;
38529;SDS011;24301;54.332;48.386;2023-04-26T07:16:17;24.35;;;7.25;;
38529;SDS011;24301;54.332;48.386;2023-04-26T07:18:43;22.80;;;6.80;;
38529;SDS011;24301;54.332;48.386;2023-04-26T07:21:08;22.27;;;6.82;;
38529;SDS011;24301;54.332;48.386;2023-04-26T07:23:34;25.90;;;8.23;;
38529;SDS011;24301;54.332;48.386;2023-04-26T07:26:01;26.10;;;7.30;;
38529;SDS011;24301;54.332;48.386;2023-04-26T07:28:29;26.08;;;7.30;;
38529;SDS011;24301;54.332;48.386;2023-04-26T07:30:56;24.65;;;6.18;;
38529;SDS011;24301;54.332;48.386;2023-04-26T07:33:24;18.25;;;6.10;;
38529;SDS011;24301;54.332;48.386;2023-04-26T07:35:54;21.98;;;6.80;;
38529;SDS011;24301;54.332;48.386;2023-04-26T07:38:24;15.77;;;5.63;;
38529;SDS011;24301;54.332;48.386;2023-04-26T07:40:50;15.70;;;5.10;;
38529;SDS011;24301;54.332;48.386;2023-04-26T07:43:17;15.63;;;4.80;;
38529;SDS011;24301;54.332;48.386;2023-04-26T07:45:46;12.93;;;4.03;;
38529;SDS011;24301;54.332;48.386;2023-04-26T07:48:11;12.95;;;4.50;;
38529;SDS011;24301;54.332;48.386;2023-04-26T07:50:37;20.65;;;4.40;;
38529;SDS011;24301;54.332;48.386;2023-04-26T07:53:03;9.75;;;3.33;;
38529;SDS011;24301;54.332;48.386;2023-04-26T07:55:30;14.57;;;4.18;;
38529;SDS011;24301;54.332;48.386;2023-04-26T07:57:56;13.40;;;4.35;;
38529;SDS011;24301;54.332;48.386;2023-04-26T08:00:22;11.63;;;3.75;;
38529;SDS011;24301;54.332;48.386;2023-04-26T08:02:48;8.63;;;3.53;;
38529;SDS011;24301;54.332;48.386;2023-04-26T08:05:14;13.73;;;3.38;;
38529;SDS011;24301;54.332;48.386;2023-04-26T08:07:41;13.30;;;3.53;;
38529;SDS011;24301;54.332;48.386;2023-04-26T08:10:08;16.92;;;4.25;;
38529;SDS011;24301;54.332;48.386;2023-04-26T08:12:35;10.55;;;3.50;;
38529;SDS011;24301;54.332;48.386;2023-04-26T08:15:02;12.55;;;3.10;;
38529;SDS011;24301;54.332;48.386;2023-04-26T08:17:33;9.15;;;3.40;;
38529;SDS011;24301;54.332;48.386;2023-04-26T08:19:59;18.58;;;4.00;;
38529;SDS011;24301;54.332;48.386;2023-04-26T08:22:25;15.60;;;3.95;;
38529;SDS011;24301;54.332;48.386;2023-04-26T08:24:53;11.95;;;3.65;;
38529;SDS011;24301;54.332;48.386;2023-04-26T08:27:20;14.07;;;4.32;;
38529;SDS011;24301;54.332;48.386;2023-04-26T08:29:47;8.98;;;2.90;;
38529;SDS011;24301;54.332;48.386;2023-04-26T08:32:13;11.18;;;3.28;;
38529;SDS011;24301;54.332;48.386;2023-04-26T08:34:39;8.95;;;2.92;;
38529;SDS011;24301;54.332;48.386;2023-04-26T08:37:06;10.57;;;2.72;;
38529;SDS011;24301;54.332;48.386;2023-04-26T08:39:32;9.57;;;4.03;;
38529;SDS011;24301;54.332;48.386;2023-04-26T08:42:02;11.40;;;3.53;;
38529;SDS011;24301;54.332;48.386;2023-04-26T08:44:30;11.90;;;3.30;;
38529;SDS011;24301;54.332;48.386;2023-04-26T08:47:05;13.43;;;3.58;;
38529;SDS011;24301;54.332;48.386;2023-04-26T08:49:38;12.85;;;2.90;;
38529;SDS011;24301;54.332;48.386;2023-04-26T08:52:09;9.98;;;2.30;;
38529;SDS011;24301;54.332;48.386;2023-04-26T08:54:37;9.95;;;2.28;;
38529;SDS011;24301;54.332;48.386;2023-04-26T08:57:07;4.38;;;1.30;;
38529;SDS011;24301;54.332;48.386;2023-04-26T08:59:35;7.63;;;1.65;;
38529;SDS011;24301;54.332;48.386;2023-04-26T09:02:02;6.43;;;2.20;;
38529;SDS011;24301;54.332;48.386;2023-04-26T09:04:30;7.57;;;2.60;;
38529;SDS011;24301;54.332;48.386;2023-04-26T09:06:58;9.70;;;2.25;;
38529;SDS011;24301;54.332;48.386;2023-04-26T09:09:33;6.70;;;2.30;;
38529;SDS011;24301;54.332;48.386;2023-04-26T09:12:03;5.80;;;1.60;;
38529;SDS011;24301;54.332;48.386;2023-04-26T09:14:30;6.80;;;1.40;;
38529;SDS011;24301;54.332;48.386;2023-04-26T09:16:56;6.95;;;2.00;;
38529;SDS011;24301;54.332;48.386;2023-04-26T09:19:55;4.68;;;1.23;;
38529;SDS011;24301;54.332;48.386;2023-04-26T09:22:14;7.10;;;1.85;;
38529;SDS011;24301;54.332;48.386;2023-04-26T09:24:52;8.18;;;2.08;;
38529;SDS011;24301;54.332;48.386;2023-04-26T09:27:18;7.03;;;1.95;;
38529;SDS011;24301;54.332;48.386;2023-04-26T09:35:29;8.65;;;2.20;;
38529;SDS011;24301;54.332;48.386;2023-04-26T09:37:56;8.32;;;2.00;;
38529;SDS011;24301;54.332;48.386;2023-04-26T09:40:24;6.05;;;1.50;;
38529;SDS011;24301;54.332;48.386;2023-04-26T09:42:58;7.85;;;2.72;;
38529;SDS011;24301;54.332;48.386;2023-04-26T09:45:26;7.50;;;2.22;;
38529;SDS011;24301;54.332;48.386;2023-04-26T09:47:53;7.32;;;1.55;;
38529;SDS011;24301;54.332;48.386;2023-04-26T09:50:29;4.50;;;1.63;;
38529;SDS011;24301;54.332;48.386;2023-04-26T09:52:55;9.95;;;2.22;;
38529;SDS011;24301;54.332;48.386;2023-04-26T09:55:26;5.43;;;1.60;;
38529;SDS011;24301;54.332;48.386;2023-04-26T09:57:53;3.65;;;1.30;;
38529;SDS011;24301;54.332;48.386;2023-04-26T10:00:20;3.00;;;1.30;;
38529;SDS011;24301;54.332;48.386;2023-04-26T10:02:46;8.43;;;1.45;;
38529;SDS011;24301;54.332;48.386;2023-04-26T10:05:12;5.30;;;1.33;;
38529;SDS011;24301;54.332;48.386;2023-04-26T10:07:38;4.65;;;1.02;;
38529;SDS011;24301;54.332;48.386;2023-04-26T10:10:06;4.20;;;1.63;;
38529;SDS011;24301;54.332;48.386;2023-04-26T10:12:33;3.60;;;1.33;;
38529;SDS011;24301;54.332;48.386;2023-04-26T10:14:59;2.10;;;1.10;;
38529;SDS011;24301;54.332;48.386;2023-04-26T10:17:25;6.00;;;1.20;;
38529;SDS011;24301;54.332;48.386;2023-04-26T10:19:52;7.15;;;1.38;;
38529;SDS011;24301;54.332;48.386;2023-04-26T10:22:22;2.22;;;1.20;;
38529;SDS011;24301;54.332;48.386;2023-04-26T10:24:52;7.85;;;1.27;;
38529;SDS011;24301;54.332;48.386;2023-04-26T10:30:10;2.72;;;1.08;;
38529;SDS011;24301;54.332;48.386;2023-04-26T10:35:17;2.70;;;1.15;;
38529;SDS011;24301;54.332;48.386;2023-04-26T10:40:30;2.30;;;1.63;;
38529;SDS011;24301;54.332;48.386;2023-04-26T10:45:45;5.07;;;1.05;;
38529;SDS011;24301;54.332;48.386;2023-04-26T10:53:30;3.35;;;1.00;;
38529;SDS011;24301;54.332;48.386;2023-04-26T10:55:57;3.63;;;1.00;;
38529;SDS011;24301;54.332;48.386;2023-04-26T11:01:07;3.05;;;0.93;;
38529;SDS011;24301;54.332;48.386;2023-04-26T11:03:39;2.85;;;1.15;;
38529;SDS011;24301;54.332;48.386;2023-04-26T11:06:06;3.28;;;1.20;;
38529;SDS011;24301;54.332;48.386;2023-04-26T11:08:34;1.83;;;1.10;;
38529;SDS011;24301;54.332;48.386;2023-04-26T11:11:05;4.35;;;1.70;;
38529;SDS011;24301;54.332;48.386;2023-04-26T11:13:35;5.43;;;1.30;;
38529;SDS011;24301;54.332;48.386;2023-04-26T11:16:03;3.53;;;1.00;;
38529;SDS011;24301;54.332;48.386;2023-04-26T11:18:39;1.92;;;1.10;;
38529;SDS011;24301;54.332;48.386;2023-04-26T11:21:06;2.55;;;1.10;;
38529;SDS011;24301;54.332;48.386;2023-04-26T11:23:33;2.78;;;1.20;;
38529;SDS011;24301;54.332;48.386;2023-04-26T11:26:04;3.97;;;1.10;;
38529;SDS011;24301;54.332;48.386;2023-04-26T11:28:34;1.08;;;0.88;;
38529;SDS011;24301;54.332;48.386;2023-04-26T11:31:01;1.65;;;1.02;;
38529;SDS011;24301;54.332;48.386;2023-04-26T11:33:28;1.27;;;1.00;;
38529;SDS011;24301;54.332;48.386;2023-04-26T11:35:56;2.75;;;1.33;;
38529;SDS011;24301;54.332;48.386;2023-04-26T11:38:26;3.20;;;1.25;;
38529;SDS011;24301;54.332;48.386;2023-04-26T11:41:00;2.10;;;1.20;;
38529;SDS011;24301;54.332;48.386;2023-04-26T11:43:37;2.10;;;1.10;;
38529;SDS011;24301;54.332;48.386;2023-04-26T11:46:04;2.85;;;1.27;;
38529;SDS011;24301;54.332;48.386;2023-04-26T11:48:32;3.35;;;1.27;;
38529;SDS011;24301;54.332;48.386;2023-04-26T11:51:01;1.35;;;1.10;;
38529;SDS011;24301;54.332;48.386;2023-04-26T11:53:41;1.80;;;1.20;;
38529;SDS011;24301;54.332;48.386;2023-04-26T11:56:14;1.58;;;0.80;;
38529;SDS011;24301;54.332;48.386;2023-04-26T11:58:45;2.17;;;1.30;;
38529;SDS011;24301;54.332;48.386;2023-04-26T12:01:22;2.53;;;1.30;;
38529;SDS011;24301;54.332;48.386;2023-04-26T12:03:50;1.65;;;1.10;;
38529;SDS011;24301;54.332;48.386;2023-04-26T12:06:18;1.98;;;1.23;;
38529;SDS011;24301;54.332;48.386;2023-04-26T12:08:50;2.63;;;1.52;;
38529;SDS011;24301;54.332;48.386;2023-04-26T12:11:17;3.92;;;1.27;;
38529;SDS011;24301;54.332;48.386;2023-04-26T12:13:44;1.77;;;1.23;;
38529;SDS011;24301;54.332;48.386;2023-04-26T12:16:12;3.78;;;1.33;;
38529;SDS011;24301;54.332;48.386;2023-04-26T12:18:39;2.30;;;1.50;;
38529;SDS011;24301;54.332;48.386;2023-04-26T12:21:06;2.75;;;1.52;;
38529;SDS011;24301;54.332;48.386;2023-04-26T12:23:36;1.50;;;1.40;;
38529;SDS011;24301;54.332;48.386;2023-04-26T12:26:04;4.25;;;1.38;;
38529;SDS011;24301;54.332;48.386;2023-04-26T12:28:31;1.50;;;1.30;;
38529;SDS011;24301;54.332;48.386;2023-04-26T12:30:57;1.35;;;1.25;;
38529;SDS011;24301;54.332;48.386;2023-04-26T12:33:22;2.55;;;1.60;;
38529;SDS011;24301;54.332;48.386;2023-04-26T12:35:49;2.67;;;1.02;;
38529;SDS011;24301;54.332;48.386;2023-04-26T12:38:16;1.55;;;1.10;;
38529;SDS011;24301;54.332;48.386;2023-04-26T12:40:43;2.88;;;1.30;;
38529;SDS011;24301;54.332;48.386;2023-04-26T12:43:09;2.53;;;1.35;;
38529;SDS011;24301;54.332;48.386;2023-04-26T12:45:35;1.50;;;1.40;;
38529;SDS011;24301;54.332;48.386;2023-04-26T12:48:01;2.85;;;1.40;;
38529;SDS011;24301;54.332;48.386;2023-04-26T12:50:27;5.72;;;1.50;;
38529;SDS011;24301;54.332;48.386;2023-04-26T12:52:53;1.98;;;1.80;;
38529;SDS011;24301;54.332;48.386;2023-04-26T12:55:20;5.63;;;1.88;;
38529;SDS011;24301;54.332;48.386;2023-04-26T12:57:46;2.40;;;1.60;;
38529;SDS011;24301;54.332;48.386;2023-04-26T13:00:15;2.65;;;1.30;;
38529;SDS011;24301;54.332;48.386;2023-04-26T13:02:47;3.03;;;1.67;;
38529;SDS011;24301;54.332;48.386;2023-04-26T13:05:13;4.25;;;1.90;;
38529;SDS011;24301;54.332;48.386;2023-04-26T13:07:41;1.83;;;1.35;;
38529;SDS011;24301;54.332;48.386;2023-04-26T13:10:08;2.58;;;1.40;;
38529;SDS011;24301;54.332;48.386;2023-04-26T13:12:36;2.25;;;1.88;;
38529;SDS011;24301;54.332;48.386;2023-04-26T13:15:04;1.88;;;1.58;;
38529;SDS011;24301;54.332;48.386;2023-04-26T13:17:34;1.48;;;1.25;;
38529;SDS011;24301;54.332;48.386;2023-04-26T13:20:03;2.25;;;1.55;;
38529;SDS011;24301;54.332;48.386;2023-04-26T13:22:32;2.33;;;1.55;;
38529;SDS011;24301;54.332;48.386;2023-04-26T13:24:59;2.08;;;1.38;;
38529;SDS011;24301;54.332;48.386;2023-04-26T13:27:25;2.40;;;1.77;;
38529;SDS011;24301;54.332;48.386;2023-04-26T13:29:51;2.08;;;1.88;;
38529;SDS011;24301;54.332;48.386;2023-04-26T13:32:17;3.20;;;1.70;;
38529;SDS011;24301;54.332;48.386;2023-04-26T13:34:44;1.50;;;1.40;;
38529;SDS011;24301;54.332;48.386;2023-04-26T13:37:10;4.75;;;2.00;;
38529;SDS011;24301;54.332;48.386;2023-04-26T13:39:37;3.00;;;1.60;;
38529;SDS011;24301;54.332;48.386;2023-04-26T13:42:03;1.50;;;1.40;;
38529;SDS011;24301;54.332;48.386;2023-04-26T13:44:30;2.00;;;1.48;;
38529;SDS011;24301;54.332;48.386;2023-04-26T13:46:57;2.33;;;2.05;;
38529;SDS011;24301;54.332;48.386;2023-04-26T13:49:24;2.05;;;1.67;;
38529;SDS011;24301;54.332;48.386;2023-04-26T13:51:51;2.08;;;1.75;;
38529;SDS011;24301;54.332;48.386;2023-04-26T13:54:19;3.03;;;1.88;;
38529;SDS011;24301;54.332;48.386;2023-04-26T13:56:51;2.00;;;1.70;;
38529;SDS011;24301;54.332;48.386;2023-04-26T13:59:18;1.80;;;1.70;;
38529;SDS011;24301;54.332;48.386;2023-04-26T14:01:45;2.88;;;1.65;;
38529;SDS011;24301;54.332;48.386;2023-04-26T14:04:11;3.13;;;1.90;;
38529;SDS011;24301;54.332;48.386;2023-04-26T14:06:38;2.58;;;2.10;;
38529;SDS011;24301;54.332;48.386;2023-04-26T14:09:04;3.45;;;2.38;;
38529;SDS011;24301;54.332;48.386;2023-04-26T14:11:30;1.60;;;1.50;;
38529;SDS011;24301;54.332;48.386;2023-04-26T14:13:57;2.05;;;1.85;;
38529;SDS011;24301;54.332;48.386;2023-04-26T14:16:23;3.53;;;1.55;;
38529;SDS011;24301;54.332;48.386;2023-04-26T14:18:50;2.75;;;1.75;;
38529;SDS011;24301;54.332;48.386;2023-04-26T14:21:17;2.40;;;2.20;;
38529;SDS011;24301;54.332;48.386;2023-04-26T14:23:44;1.98;;;1.77;;
38529;SDS011;24301;54.332;48.386;2023-04-26T14:26:10;1.80;;;1.48;;
38529;SDS011;24301;54.332;48.386;2023-04-26T14:28:36;1.88;;;1.48;;
38529;SDS011;24301;54.332;48.386;2023-04-26T14:31:03;2.22;;;1.60;;
38529;SDS011;24301;54.332;48.386;2023-04-26T14:33:29;2.33;;;1.95;;
38529;SDS011;24301;54.332;48.386;2023-04-26T14:35:56;2.75;;;1.98;;
38529;SDS011;24301;54.332;48.386;2023-04-26T14:38:22;2.75;;;1.63;;
38529;SDS011;24301;54.332;48.386;2023-04-26T14:40:48;2.10;;;1.65;;
38529;SDS011;24301;54.332;48.386;2023-04-26T14:43:14;2.22;;;1.80;;
38529;SDS011;24301;54.332;48.386;2023-04-26T14:45:43;1.90;;;1.75;;
38529;SDS011;24301;54.332;48.386;2023-04-26T14:48:09;2.20;;;2.00;;
38529;SDS011;24301;54.332;48.386;2023-04-26T14:50:37;2.10;;;1.90;;
38529;SDS011;24301;54.332;48.386;2023-04-26T14:53:02;5.30;;;2.35;;
38529;SDS011;24301;54.332;48.386;2023-04-26T14:55:29;2.63;;;1.88;;
38529;SDS011;24301;54.332;48.386;2023-04-26T14:57:56;4.55;;;2.13;;
38529;SDS011;24301;54.332;48.386;2023-04-26T15:00:22;4.40;;;2.20;;
38529;SDS011;24301;54.332;48.386;2023-04-26T15:02:50;4.68;;;2.70;;
38529;SDS011;24301;54.332;48.386;2023-04-26T15:05:16;2.30;;;2.10;;